Time;durP1;ratioP1;P1;durP2;ratioP2;P2;SDS_P1;SDS_P2;PMS_P1;PMS_P2;Temp;Humidity;BMP_temperature;BMP_pressure;BME280_temperature;BME280_humidity;BME280_pressure;Samples;Min_cycle;Max_cycle;Signal;HPM_P1;HPM_P2
2023/08/17 00:01:33;;;;;;;3.80;1.50;;;;;;;21.05;98.55;101568.06;5073749;28;20520;-71
2023/08/17 00:04:00;;;;;;;3.50;1.73;;;;;;;21.02;98.75;101574.28;5073934;28;20469;-71
2023/08/17 00:06:26;;;;;;;3.97;2.20;;;;;;;21.00;99.13;101571.88;5074460;28;20539;-71
2023/08/17 00:08:53;;;;;;;3.03;1.53;;;;;;;20.99;99.21;101559.25;5073475;28;20441;-71
2023/08/17 00:11:20;;;;;;;6.00;1.90;;;;;;;21.00;99.48;101549.03;5074006;28;20441;-71
2023/08/17 00:13:46;;;;;;;5.10;2.17;;;;;;;20.96;99.21;101548.94;5073693;28;20449;-71
2023/08/17 00:16:13;;;;;;;4.07;1.77;;;;;;;20.92;98.87;101548.03;5074231;28;20556;-71
2023/08/17 00:18:41;;;;;;;3.63;2.10;;;;;;;20.87;98.67;101538.03;5073994;28;20548;-71
2023/08/17 00:21:07;;;;;;;3.13;1.57;;;;;;;20.85;98.91;101551.38;5072960;28;21000;-71
2023/08/17 00:23:34;;;;;;;4.50;2.10;;;;;;;20.86;99.02;101552.97;5073697;28;20444;-71
2023/08/17 00:26:01;;;;;;;3.70;1.90;;;;;;;20.87;99.54;101546.31;5073820;28;20455;-71
2023/08/17 00:28:28;;;;;;;3.43;1.83;;;;;;;20.79;99.25;101547.22;5073695;28;20433;-71
2023/08/17 00:30:54;;;;;;;3.80;2.17;;;;;;;20.81;99.87;101547.72;5073702;28;20464;-71
2023/08/17 00:33:21;;;;;;;7.93;2.43;;;;;;;20.78;99.13;101548.38;5073641;28;20532;-71
2023/08/17 00:35:49;;;;;;;4.80;1.60;;;;;;;20.76;98.85;101550.69;5073463;28;21060;-71
2023/08/17 00:38:16;;;;;;;6.70;1.67;;;;;;;20.77;100.00;101538.53;5073379;28;20568;-71
2023/08/17 00:40:43;;;;;;;3.17;1.73;;;;;;;20.80;100.00;101542.53;5073417;28;20540;-71
2023/08/17 00:43:10;;;;;;;7.13;1.90;;;;;;;20.78;99.83;101537.38;5073843;28;20445;-71
2023/08/17 00:45:37;;;;;;;3.83;1.90;;;;;;;20.77;99.44;101530.28;5073577;28;20457;-70
2023/08/17 00:48:07;;;;;;;3.10;1.40;;;;;;;20.80;99.36;101535.06;5073398;28;20430;-70
2023/08/17 00:50:35;;;;;;;3.23;1.40;;;;;;;20.82;99.58;101543.78;5073681;28;20460;-70
2023/08/17 00:53:04;;;;;;;6.30;2.10;;;;;;;20.77;99.49;101541.28;5073331;28;20437;-70
2023/08/17 00:55:31;;;;;;;3.83;1.90;;;;;;;20.75;99.23;101537.25;5073117;28;20851;-70
2023/08/17 00:57:58;;;;;;;7.30;1.87;;;;;;;20.76;99.28;101538.84;5073189;28;21062;-70
2023/08/17 01:00:26;;;;;;;4.63;2.07;;;;;;;20.74;99.20;101541.16;5073524;28;20429;-70
2023/08/17 01:02:54;;;;;;;5.13;2.07;;;;;;;20.68;98.68;101543.38;5073365;28;20437;-70
2023/08/17 01:05:21;;;;;;;3.33;1.50;;;;;;;20.69;99.06;101538.66;5073247;28;20467;-70
2023/08/17 01:07:48;;;;;;;5.70;2.10;;;;;;;20.69;98.88;101536.69;5073159;28;20441;-70
2023/08/17 01:10:16;;;;;;;4.30;2.20;;;;;;;20.66;98.31;101529.13;5073172;28;20437;-70
2023/08/17 01:12:48;;;;;;;6.40;2.17;;;;;;;20.59;99.11;101529.72;5073547;28;20441;-70
2023/08/17 01:15:19;;;;;;;3.50;1.73;;;;;;;20.51;99.47;101522.38;5073179;28;20457;-70
2023/08/17 01:17:53;;;;;;;3.53;1.93;;;;;;;20.49;99.29;101537.63;5073363;28;20556;-70
2023/08/17 01:20:20;;;;;;;6.50;2.23;;;;;;;20.45;100.00;101539.44;5073245;28;20518;-70
2023/08/17 01:22:50;;;;;;;5.40;1.97;;;;;;;20.45;100.00;101528.44;5073531;28;20449;-70
2023/08/17 01:25:18;;;;;;;3.13;1.43;;;;;;;20.44;100.00;101530.38;5072606;28;20972;-70
2023/08/17 01:27:46;;;;;;;5.83;1.60;;;;;;;20.39;100.00;101531.41;5072935;28;20473;-70
2023/08/17 01:30:16;;;;;;;3.57;1.87;;;;;;;20.38;100.00;101531.75;5073220;28;20442;-70
2023/08/17 01:32:49;;;;;;;4.63;1.83;;;;;;;20.31;100.00;101524.06;5076694;28;20967;-71
2023/08/17 01:35:22;;;;;;;4.90;1.27;;;;;;;20.28;100.00;101519.28;5077053;28;20560;-71
2023/08/17 01:37:51;;;;;;;6.13;2.30;;;;;;;20.19;100.00;101518.59;5076308;28;20560;-71
2023/08/17 01:40:21;;;;;;;3.67;1.77;;;;;;;20.20;100.00;101520.19;5076512;28;20847;-71
2023/08/17 01:42:50;;;;;;;3.30;1.60;;;;;;;20.20;100.00;101522.94;5076164;28;20970;-71
2023/08/17 01:45:17;;;;;;;4.40;2.17;;;;;;;20.15;100.00;101525.91;5076786;28;20540;-71
2023/08/17 01:47:44;;;;;;;5.00;1.77;;;;;;;20.16;100.00;101531.06;5076249;28;20925;-71
2023/08/17 01:50:11;;;;;;;4.03;1.73;;;;;;;20.15;100.00;101536.91;5076341;28;20480;-71
2023/08/17 01:52:37;;;;;;;5.73;1.60;;;;;;;20.12;100.00;101532.09;5075971;28;20453;-71
2023/08/17 01:55:04;;;;;;;6.50;2.27;;;;;;;20.14;100.00;101535.28;5076670;28;20500;-71
2023/08/17 01:57:32;;;;;;;3.80;1.80;;;;;;;20.13;100.00;101530.94;5076212;28;20567;-72
2023/08/17 02:00:01;;;;;;;3.50;1.90;;;;;;;20.16;100.00;101538.53;5076903;28;20433;-74
2023/08/17 02:02:28;;;;;;;4.07;1.70;;;;;;;20.05;100.00;101537.34;5076124;28;20446;-72
2023/08/17 02:04:55;;;;;;;3.30;1.43;;;;;;;20.06;100.00;101544.47;5076123;28;20528;-70
2023/08/17 02:07:22;;;;;;;4.70;2.30;;;;;;;20.04;100.00;101544.00;5075776;28;20570;-71
2023/08/17 02:09:48;;;;;;;5.63;2.00;;;;;;;20.03;100.00;101550.66;5076699;28;20437;-71
2023/08/17 02:12:15;;;;;;;3.60;1.77;;;;;;;20.02;100.00;101544.34;5075592;28;21016;-71
2023/08/17 02:14:43;;;;;;;5.13;1.80;;;;;;;20.00;100.00;101543.06;5091907;22;20489;-68
2023/08/17 02:17:09;;;;;;;9.00;2.40;;;;;;;19.98;100.00;101529.69;5076180;28;20516;-68
2023/08/17 02:19:36;;;;;;;6.50;2.50;;;;;;;19.99;100.00;101533.22;5076195;28;20465;-68
2023/08/17 02:22:03;;;;;;;4.07;1.97;;;;;;;19.97;100.00;101528.09;5075809;28;20848;-68
2023/08/17 02:24:29;;;;;;;4.57;1.80;;;;;;;19.94;100.00;101537.00;5075883;28;20799;-68
2023/08/17 02:26:56;;;;;;;3.00;1.60;;;;;;;19.96;100.00;101539.41;5075262;28;20526;-68
2023/08/17 02:29:23;;;;;;;4.17;1.80;;;;;;;19.97;100.00;101527.28;5075905;28;20430;-68
2023/08/17 02:31:51;;;;;;;3.57;1.70;;;;;;;19.97;100.00;101527.28;5075233;28;20451;-68
2023/08/17 02:34:17;;;;;;;3.27;1.83;;;;;;;19.98;100.00;101524.19;5075595;28;20536;-68
2023/08/17 02:36:44;;;;;;;4.23;1.50;;;;;;;19.98;100.00;101518.69;5075362;28;20457;-68
2023/08/17 02:39:10;;;;;;;4.03;2.07;;;;;;;19.97;100.00;101514.31;5075617;28;20521;-68
2023/08/17 02:41:37;;;;;;;3.97;1.67;;;;;;;19.96;100.00;101515.44;5075883;28;20469;-68
2023/08/17 02:44:04;;;;;;;3.57;1.60;;;;;;;19.94;100.00;101514.19;5074445;28;20844;-68
2023/08/17 02:46:31;;;;;;;5.03;2.20;;;;;;;19.94;100.00;101517.75;5075233;28;20465;-68
2023/08/17 02:48:59;;;;;;;3.60;1.43;;;;;;;19.94;100.00;101505.94;5075716;28;20472;-68
2023/08/17 02:51:25;;;;;;;3.13;1.37;;;;;;;19.93;100.00;101504.34;5075195;28;20444;-68
2023/08/17 02:53:52;;;;;;;11.57;1.87;;;;;;;19.91;100.00;101513.72;5075488;28;20851;-68
2023/08/17 02:56:18;;;;;;;3.90;1.40;;;;;;;19.92;100.00;101511.78;5074688;28;21410;-68
2023/08/17 02:58:45;;;;;;;5.03;2.20;;;;;;;19.90;99.67;101509.38;5075185;28;20568;-68
2023/08/17 03:01:12;;;;;;;5.17;1.60;;;;;;;19.90;100.00;101514.88;5075077;28;20529;-68
2023/08/17 03:03:38;;;;;;;3.63;1.80;;;;;;;19.87;100.00;101509.25;5074674;28;20529;-68
2023/08/17 03:06:07;;;;;;;5.07;1.97;;;;;;;19.86;100.00;101515.91;5075102;28;20552;-68
2023/08/17 03:08:33;;;;;;;3.30;1.70;;;;;;;19.80;100.00;101504.31;5074861;28;20824;-68
2023/08/17 03:11:00;;;;;;;2.90;1.47;;;;;;;19.68;100.00;101511.75;5075126;28;20469;-68
2023/08/17 03:13:27;;;;;;;4.70;2.07;;;;;;;19.62;100.00;101513.91;5074605;28;20548;-68
2023/08/17 03:15:55;;;;;;;4.30;1.50;;;;;;;19.58;100.00;101512.97;5074264;28;20836;-68
2023/08/17 03:18:21;;;;;;;4.63;1.70;;;;;;;19.54;100.00;101517.53;5074548;28;20558;-68
2023/08/17 03:20:48;;;;;;;3.43;1.50;;;;;;;19.51;100.00;101515.44;5075075;28;20448;-68
2023/08/17 03:23:16;;;;;;;7.60;1.63;;;;;;;19.47;100.00;101514.50;5074620;28;20524;-68
2023/08/17 03:25:43;;;;;;;4.00;1.80;;;;;;;19.42;100.00;101508.09;5075064;28;20457;-68
2023/08/17 03:28:09;;;;;;;5.13;2.07;;;;;;;19.41;100.00;101514.72;5074658;28;20433;-69
2023/08/17 03:30:36;;;;;;;3.90;1.93;;;;;;;19.33;100.00;101509.31;5074921;28;20524;-67
2023/08/17 03:33:03;;;;;;;3.20;1.50;;;;;;;19.33;100.00;101512.06;5074297;28;20575;-67
2023/08/17 03:35:29;;;;;;;6.70;2.00;;;;;;;19.30;100.00;101508.06;5074314;28;20501;-68
2023/08/17 03:37:56;;;;;;;3.13;1.30;;;;;;;19.30;100.00;101505.31;5074484;28;20575;-68
2023/08/17 03:40:24;;;;;;;6.30;1.60;;;;;;;19.26;100.00;101504.38;5074488;28;20819;-67
2023/08/17 03:42:51;;;;;;;6.57;2.50;;;;;;;19.21;100.00;101499.06;5074096;28;20489;-67
2023/08/17 03:45:19;;;;;;;3.57;1.53;;;;;;;19.23;100.00;101501.50;5074106;28;20560;-67
2023/08/17 03:47:45;;;;;;;4.50;1.30;;;;;;;19.24;100.00;101495.66;5073781;28;20434;-67
2023/08/17 03:50:12;;;;;;;5.40;1.80;;;;;;;19.21;100.00;101499.06;5073607;28;20950;-67
2023/08/17 03:52:39;;;;;;;3.53;1.40;;;;;;;19.18;100.00;101496.22;5074060;28;20443;-67
2023/08/17 03:55:07;;;;;;;3.07;1.27;;;;;;;19.17;100.00;101495.41;5073382;28;20483;-67
2023/08/17 03:57:35;;;;;;;4.10;1.70;;;;;;;19.16;100.00;101507.50;5073942;28;20498;-67
2023/08/17 04:00:01;;;;;;;3.97;2.00;;;;;;;19.18;100.00;101509.94;5073582;28;20433;-67
2023/08/17 04:02:28;;;;;;;3.50;1.97;;;;;;;19.17;100.00;101509.16;5074169;28;20433;-67
2023/08/17 04:04:54;;;;;;;4.27;1.70;;;;;;;19.15;100.00;101505.91;5074238;28;20554;-68
2023/08/17 04:07:22;;;;;;;5.50;1.70;;;;;;;19.11;100.00;101500.28;5073670;28;20464;-67
2023/08/17 04:09:48;;;;;;;6.33;2.20;;;;;;;19.13;100.00;101502.72;5073725;28;20429;-67
2023/08/17 04:12:15;;;;;;;3.83;1.90;;;;;;;19.10;100.00;101500.63;5073778;28;20516;-68
2023/08/17 04:14:43;;;;;;;3.23;1.33;;;;;;;19.10;100.00;101503.38;5073792;28;20539;-68
2023/08/17 04:17:10;;;;;;;3.23;1.57;;;;;;;19.08;100.00;101495.50;5073633;28;20441;-68
2023/08/17 04:19:36;;;;;;;3.40;1.53;;;;;;;19.08;100.00;101497.41;5073225;28;20487;-68
2023/08/17 04:22:03;;;;;;;3.70;1.60;;;;;;;19.10;100.00;101497.88;5074359;28;20524;-68
2023/08/17 04:24:30;;;;;;;3.47;1.37;;;;;;;19.10;100.00;101490.44;5073622;28;20955;-67
2023/08/17 04:26:56;;;;;;;3.50;1.70;;;;;;;19.12;100.00;101488.19;5073803;28;20461;-68
2023/08/17 04:29:23;;;;;;;2.53;1.17;;;;;;;19.14;100.00;101490.59;5073497;28;20529;-68
2023/08/17 04:31:51;;;;;;;4.97;2.00;;;;;;;19.14;99.62;101485.09;5074071;28;20476;-68
2023/08/17 04:34:17;;;;;;;3.37;1.37;;;;;;;19.16;99.35;101488.28;5073858;28;20484;-68
2023/08/17 04:36:44;;;;;;;5.77;1.60;;;;;;;19.18;99.27;101488.78;5073191;28;20457;-67
2023/08/17 04:39:10;;;;;;;3.13;1.40;;;;;;;19.23;100.00;101485.00;5073396;28;20480;-67
2023/08/17 04:41:37;;;;;;;2.90;1.63;;;;;;;19.24;99.55;101481.13;5073715;28;20880;-67
2023/08/17 04:44:04;;;;;;;4.40;1.60;;;;;;;19.20;98.72;101491.97;5073404;28;20441;-67
2023/08/17 04:46:31;;;;;;;4.93;1.70;;;;;;;19.23;97.68;101496.81;5073416;28;20457;-68
2023/08/17 04:48:59;;;;;;;8.17;1.43;;;;;;;19.27;98.73;101503.22;5073382;28;20425;-68
2023/08/17 04:51:26;;;;;;;3.67;1.33;;;;;;;19.27;99.27;101497.75;5073326;28;20520;-67
2023/08/17 04:53:52;;;;;;;4.67;2.00;;;;;;;19.32;98.03;101502.22;5073282;28;20532;-67
2023/08/17 04:56:19;;;;;;;4.20;1.70;;;;;;;19.35;98.54;101496.06;5073244;28;20457;-66
2023/08/17 04:58:46;;;;;;;3.30;1.60;;;;;;;19.40;99.72;101498.59;5073167;28;20572;-66
2023/08/17 05:01:12;;;;;;;2.63;1.10;;;;;;;19.40;98.93;101493.88;5073302;28;20520;-67
2023/08/17 05:03:40;;;;;;;5.33;1.47;;;;;;;19.42;98.49;101497.09;5073475;28;20439;-67
2023/08/17 05:06:08;;;;;;;4.80;1.87;;;;;;;19.45;98.74;101492.88;5074789;28;20461;-67
2023/08/17 05:08:35;;;;;;;3.03;1.50;;;;;;;19.47;97.70;101496.06;5077274;28;20520;-67
2023/08/17 05:11:01;;;;;;;5.20;1.83;;;;;;;19.53;97.11;101502.19;5077045;28;20848;-67
2023/08/17 05:13:28;;;;;;;3.87;1.50;;;;;;;19.56;97.23;101509.72;5076702;28;20498;-67
2023/08/17 05:15:54;;;;;;;4.43;2.10;;;;;;;19.59;97.44;101504.34;5076908;28;20995;-67
2023/08/17 05:18:21;;;;;;;3.27;1.33;;;;;;;19.59;97.14;101509.06;5076448;28;21000;-67
2023/08/17 05:20:48;;;;;;;3.07;1.20;;;;;;;19.56;97.94;101517.97;5076572;28;20884;-67
2023/08/17 05:23:16;;;;;;;7.10;1.60;;;;;;;19.52;97.69;101519.78;5076733;28;20463;-66
2023/08/17 05:25:42;;;;;;;3.37;1.77;;;;;;;19.52;97.41;101520.63;5076678;28;20513;-65
2023/08/17 05:28:09;;;;;;;8.30;1.57;;;;;;;19.52;97.50;101514.28;5076692;28;20520;-66
2023/08/17 05:30:35;;;;;;;3.37;1.67;;;;;;;19.54;97.63;101512.03;5076875;28;20441;-66
2023/08/17 05:33:02;;;;;;;3.87;1.90;;;;;;;19.56;97.42;101515.22;5076802;28;20532;-66
2023/08/17 05:35:29;;;;;;;3.00;1.40;;;;;;;19.57;97.81;101509.41;5076716;28;20515;-66
2023/08/17 05:37:55;;;;;;;4.47;1.30;;;;;;;19.60;98.32;101516.97;5076173;28;20996;-66
2023/08/17 05:40:23;;;;;;;3.37;1.50;;;;;;;19.64;98.48;101517.13;5076602;28;20572;-66
2023/08/17 05:42:50;;;;;;;4.03;1.50;;;;;;;19.71;98.84;101517.38;5076449;28;20441;-66
2023/08/17 05:45:17;;;;;;;4.30;1.87;;;;;;;19.70;96.85;101535.00;5076177;28;20968;-66
2023/08/17 05:47:45;;;;;;;3.60;1.70;;;;;;;19.75;96.41;101540.28;5076521;28;20524;-66
2023/08/17 05:50:11;;;;;;;3.73;1.57;;;;;;;19.77;95.92;101557.25;5076253;28;20460;-66
2023/08/17 05:52:38;;;;;;;3.20;1.40;;;;;;;19.81;93.61;101571.91;5076563;28;20532;-66
2023/08/17 05:55:05;;;;;;;3.97;1.40;;;;;;;19.87;90.89;101586.25;5076333;28;20457;-66
2023/08/17 05:57:33;;;;;;;3.00;1.53;;;;;;;19.97;93.13;101596.03;5076184;28;20461;-66
2023/08/17 06:00:00;;;;;;;3.17;1.40;;;;;;;20.01;93.44;101608.78;5076106;28;20581;-66
2023/08/17 06:02:26;;;;;;;3.07;1.40;;;;;;;20.06;93.94;101616.81;5075814;28;20805;-66
2023/08/17 06:04:53;;;;;;;3.57;1.50;;;;;;;20.09;94.27;101618.06;5076048;28;20449;-67
2023/08/17 06:07:19;;;;;;;5.10;1.57;;;;;;;20.16;95.48;101621.06;5076029;28;20516;-66
2023/08/17 06:09:46;;;;;;;3.27;1.27;;;;;;;20.21;95.77;101618.09;5075983;28;20536;-66
2023/08/17 06:12:12;;;;;;;4.23;2.00;;;;;;;20.24;94.89;101616.59;5075976;28;20433;-66
2023/08/17 06:14:42;;;;;;;2.70;1.13;;;;;;;20.27;95.68;101615.91;5075422;28;20477;-66
2023/08/17 06:17:08;;;;;;;3.73;1.70;;;;;;;20.30;96.37;101605.03;5074433;28;20541;-66
2023/08/17 06:19:35;;;;;;;4.73;1.57;;;;;;;20.27;94.39;101605.69;5075765;28;20521;-66
2023/08/17 06:22:02;;;;;;;3.63;1.80;;;;;;;20.31;91.91;101603.88;5075833;28;20441;-66
2023/08/17 06:24:29;;;;;;;2.93;1.10;;;;;;;20.40;91.08;101601.81;5075805;28;20448;-66
2023/08/17 06:26:55;;;;;;;5.50;1.50;;;;;;;20.51;90.38;101588.44;5075865;28;20544;-65
2023/08/17 06:29:22;;;;;;;4.53;1.40;;;;;;;20.60;89.68;101583.63;5075935;28;20436;-67
2023/08/17 06:31:50;;;;;;;5.40;1.50;;;;;;;20.72;88.44;101580.06;5075259;28;20441;-66
2023/08/17 06:34:17;;;;;;;3.33;1.50;;;;;;;20.80;89.06;101581.88;5075226;28;20889;-66
2023/08/17 06:36:57;;;;;;;2.40;0.93;;;;;;;20.80;87.67;101576.38;5075487;28;20457;-66
2023/08/17 06:39:24;;;;;;;3.30;1.50;;;;;;;20.87;88.54;101570.28;5075044;28;20496;-66
2023/08/17 06:41:50;;;;;;;3.47;1.50;;;;;;;20.90;89.28;101577.88;5075753;28;20465;-66
2023/08/17 06:44:17;;;;;;;5.37;1.83;;;;;;;20.92;91.19;101575.56;5075590;28;20433;-66
2023/08/17 06:46:43;;;;;;;4.97;1.80;;;;;;;20.96;92.31;101570.97;5075508;28;21012;-66
2023/08/17 06:49:12;;;;;;;4.70;1.57;;;;;;;20.94;90.53;101566.94;5075230;28;20452;-67
2023/08/17 06:51:39;;;;;;;2.87;1.33;;;;;;;20.97;91.13;101560.75;5075102;28;20445;-67
2023/08/17 06:54:06;;;;;;;3.43;1.37;;;;;;;20.93;90.34;101546.84;5075070;28;20532;-66
2023/08/17 06:56:32;;;;;;;2.60;1.20;;;;;;;20.96;90.61;101550.88;5075196;28;20456;-67
2023/08/17 06:58:59;;;;;;;3.07;1.50;;;;;;;20.94;90.58;101554.00;5074547;28;20485;-66
2023/08/17 07:01:26;;;;;;;10.70;1.80;;;;;;;20.88;91.81;101556.16;5074599;28;20527;-66
2023/08/17 07:03:53;;;;;;;3.77;1.30;;;;;;;20.82;93.82;101560.31;5075451;28;20529;-66
2023/08/17 07:06:21;;;;;;;3.10;1.23;;;;;;;20.75;96.64;101560.09;5074778;28;21096;-66
2023/08/17 07:08:47;;;;;;;4.27;1.80;;;;;;;20.68;99.68;101554.38;5075067;28;20446;-66
2023/08/17 07:11:14;;;;;;;3.90;1.60;;;;;;;20.60;100.00;101553.34;5074751;28;20444;-66
2023/08/17 07:13:40;;;;;;;3.87;1.67;;;;;;;20.50;100.00;101561.28;5074918;28;20456;-66
2023/08/17 07:16:07;;;;;;;4.30;1.80;;;;;;;20.40;100.00;101559.72;5074292;28;20977;-66
2023/08/17 07:18:33;;;;;;;3.47;1.60;;;;;;;20.29;100.00;101558.59;5074318;28;20948;-66
2023/08/17 07:21:00;;;;;;;4.80;1.83;;;;;;;20.25;100.00;101563.97;5074713;28;20527;-66
2023/08/17 07:23:28;;;;;;;3.20;1.67;;;;;;;20.16;100.00;101560.53;5074566;28;20520;-66
2023/08/17 07:25:55;;;;;;;4.57;2.07;;;;;;;20.03;100.00;101550.66;5074260;28;20457;-66
2023/08/17 07:28:21;;;;;;;3.30;1.40;;;;;;;20.00;100.00;101548.56;5074104;28;20525;-66
2023/08/17 07:30:48;;;;;;;3.27;1.30;;;;;;;19.96;100.00;101553.16;5074754;28;20437;-66
2023/08/17 07:33:14;;;;;;;3.40;1.87;;;;;;;19.90;100.00;101569.06;5074642;28;20469;-66
2023/08/17 07:35:41;;;;;;;4.20;1.77;;;;;;;19.73;100.00;101574.75;5074217;28;20465;-66
2023/08/17 07:38:08;;;;;;;5.20;2.03;;;;;;;19.71;100.00;101574.31;5074292;28;20528;-66
2023/08/17 07:40:36;;;;;;;3.23;1.70;;;;;;;19.71;100.00;101566.84;5074168;28;20908;-66
2023/08/17 07:43:03;;;;;;;5.63;1.70;;;;;;;19.67;100.00;101565.13;5074530;28;20469;-66
2023/08/17 07:45:29;;;;;;;4.40;1.87;;;;;;;19.71;100.00;101553.09;5073894;28;20489;-66
2023/08/17 07:47:56;;;;;;;4.43;2.67;;;;;;;19.74;100.00;101543.38;5073979;28;20893;-66
2023/08/17 07:50:22;;;;;;;4.30;1.93;;;;;;;19.76;100.00;101547.41;5074012;28;20433;-66
2023/08/17 07:52:49;;;;;;;2.83;1.43;;;;;;;19.79;100.00;101543.97;5073685;28;20438;-66
2023/08/17 07:55:16;;;;;;;8.90;2.60;;;;;;;19.77;100.00;101535.25;5073630;28;20497;-66
2023/08/17 07:57:44;;;;;;;246.20;32.40;;;;;;;19.70;100.00;101521.28;5073917;28;20877;-66
2023/08/17 08:00:11;;;;;;;5.90;2.10;;;;;;;19.71;100.00;101522.06;5073620;28;20575;-66
2023/08/17 08:02:38;;;;;;;138.23;9.63;;;;;;;19.77;100.00;101506.94;5074031;28;20462;-66
2023/08/17 08:05:05;;;;;;;6.10;2.40;;;;;;;19.85;100.00;101509.59;5073690;28;20489;-66
2023/08/17 08:07:32;;;;;;;16.83;2.87;;;;;;;19.94;100.00;101503.19;5074346;28;20445;-66
2023/08/17 08:09:59;;;;;;;7.10;2.57;;;;;;;19.98;100.00;101504.94;5073991;28;20476;-66
2023/08/17 08:12:26;;;;;;;5.00;2.17;;;;;;;20.04;100.00;101505.50;5073503;28;20437;-66
2023/08/17 08:14:54;;;;;;;3.97;2.20;;;;;;;20.12;100.00;101501.84;5102344;22;20530;-69
2023/08/17 08:17:20;;;;;;;5.40;2.20;;;;;;;20.24;100.00;101501.84;5093832;28;20437;-69
2023/08/17 08:19:47;;;;;;;5.23;2.67;;;;;;;20.33;100.00;101499.78;5093864;28;20484;-69
2023/08/17 08:22:13;;;;;;;5.83;2.33;;;;;;;20.44;100.00;101496.56;5094201;28;20436;-69
2023/08/17 08:24:41;;;;;;;5.30;2.40;;;;;;;20.51;100.00;101500.38;5093787;28;21030;-70
2023/08/17 08:27:07;;;;;;;5.60;2.50;;;;;;;20.55;100.00;101500.47;5094083;28;20523;-70
2023/08/17 08:29:35;;;;;;;4.00;1.97;;;;;;;20.62;100.00;101501.47;5093657;28;21008;-69
2023/08/17 08:32:03;;;;;;;3.80;1.97;;;;;;;20.76;100.00;101492.03;5094030;28;20459;-69
2023/08/17 08:34:29;;;;;;;4.43;2.00;;;;;;;20.82;100.00;101496.97;5093793;28;20802;-69
2023/08/17 08:36:56;;;;;;;6.40;2.37;;;;;;;20.82;100.00;101488.72;5093894;28;20536;-69
2023/08/17 08:39:22;;;;;;;5.23;2.10;;;;;;;20.79;100.00;101481.13;5093508;28;20448;-69
2023/08/17 08:41:49;;;;;;;4.13;2.00;;;;;;;20.79;100.00;101474.84;5099620;28;20454;-69
2023/08/17 08:44:16;;;;;;;4.87;2.57;;;;;;;20.80;100.00;101474.47;5100304;28;20435;-69
2023/08/17 08:46:45;;;;;;;2.70;1.40;;;;;;;20.78;100.00;101471.28;5100235;28;20503;-69
2023/08/17 08:49:18;;;;;;;3.80;2.00;;;;;;;20.68;100.00;101473.72;5100000;28;21019;-70
2023/08/17 08:51:49;;;;;;;2.97;1.40;;;;;;;20.66;100.00;101469.34;5100224;28;20462;-70
2023/08/17 08:54:21;;;;;;;3.57;1.80;;;;;;;20.63;100.00;101474.78;5100638;28;20498;-69
2023/08/17 08:56:52;;;;;;;4.13;2.37;;;;;;;20.62;100.00;101467.63;5100745;28;20463;-70
2023/08/17 08:59:22;;;;;;;2.97;1.43;;;;;;;20.65;100.00;101469.72;5099819;28;20420;-70
2023/08/17 09:01:49;;;;;;;4.20;2.03;;;;;;;20.76;100.00;101468.09;5100151;28;20472;-69
2023/08/17 09:04:17;;;;;;;4.27;1.83;;;;;;;20.87;100.00;101473.91;5100157;28;20466;-69
2023/08/17 09:06:44;;;;;;;3.27;1.63;;;;;;;21.00;100.00;101467.19;5099842;28;21027;-69
2023/08/17 09:09:12;;;;;;;3.60;2.00;;;;;;;21.15;100.00;101463.66;5100376;28;20474;-70
2023/08/17 09:11:39;;;;;;;3.90;2.20;;;;;;;21.29;100.00;101463.25;5100089;28;20519;-70
2023/08/17 09:14:07;;;;;;;4.20;2.00;;;;;;;21.46;100.00;101466.88;5099786;28;20456;-70
2023/08/17 09:16:33;;;;;;;4.73;2.23;;;;;;;21.56;100.00;101471.88;5099947;28;20494;-70
2023/08/17 09:19:00;;;;;;;4.60;2.30;;;;;;;21.64;100.00;101465.38;5100401;28;20518;-70
2023/08/17 09:21:32;;;;;;;5.70;2.70;;;;;;;21.82;100.00;101463.88;5099893;28;20488;-70
2023/08/17 09:23:59;;;;;;;4.40;2.97;;;;;;;21.91;100.00;101466.47;5100019;28;20516;-70
2023/08/17 09:26:26;;;;;;;5.70;2.27;;;;;;;22.03;100.00;101471.09;5099885;28;20552;-70
2023/08/17 09:28:54;;;;;;;4.97;3.10;;;;;;;22.11;100.00;101467.34;5100554;28;20529;-70
2023/08/17 09:31:22;;;;;;;3.50;2.00;;;;;;;22.22;100.00;101468.41;5099900;28;20436;-70
2023/08/17 09:33:50;;;;;;;3.63;1.73;;;;;;;22.17;100.00;101472.25;5099655;28;20436;-70
2023/08/17 09:36:21;;;;;;;4.13;2.37;;;;;;;22.26;100.00;101477.59;5099775;28;20460;-70
2023/08/17 09:38:51;;;;;;;4.80;2.70;;;;;;;22.23;100.00;101472.81;5100229;28;20428;-70
2023/08/17 09:41:18;;;;;;;4.43;2.27;;;;;;;22.31;100.00;101471.81;5099816;28;20498;-70
2023/08/17 09:43:46;;;;;;;4.30;2.43;;;;;;;22.31;100.00;101466.28;5100069;28;20457;-70
2023/08/17 09:46:12;;;;;;;3.20;1.63;;;;;;;22.29;100.00;101463.06;5099727;28;20466;-70
2023/08/17 09:48:39;;;;;;;4.67;2.03;;;;;;;22.29;100.00;101465.84;5100324;28;20447;-70
2023/08/17 09:51:07;;;;;;;7.10;1.77;;;;;;;22.17;100.00;101469.50;5099750;28;20879;-70
2023/08/17 09:53:37;;;;;;;4.83;2.03;;;;;;;22.15;100.00;101471.03;5096251;28;20468;-70
2023/08/17 09:56:07;;;;;;;6.30;2.80;;;;;;;21.97;100.00;101462.28;5096392;28;20459;-69
2023/08/17 09:58:34;;;;;;;5.87;2.33;;;;;;;21.99;100.00;101468.25;5096856;28;20425;-70
2023/08/17 10:01:04;;;;;;;3.80;2.30;;;;;;;22.09;100.00;101473.25;5096332;28;20570;-70
2023/08/17 10:03:34;;;;;;;4.93;2.83;;;;;;;22.18;100.00;101470.31;5096491;28;20445;-70
2023/08/17 10:06:05;;;;;;;5.27;2.30;;;;;;;22.34;100.00;101468.31;5096516;28;20460;-70
2023/08/17 10:08:36;;;;;;;3.80;1.93;;;;;;;22.52;100.00;101465.16;5096383;28;20951;-69
2023/08/17 10:11:08;;;;;;;3.97;2.27;;;;;;;22.73;100.00;101462.84;5095925;28;20417;-70
2023/08/17 10:13:38;;;;;;;3.97;2.40;;;;;;;22.92;100.00;101460.13;5096217;28;20531;-70
2023/08/17 10:16:12;;;;;;;4.57;2.50;;;;;;;23.14;100.00;101460.53;5096007;28;20509;-70
2023/08/17 10:18:47;;;;;;;3.87;2.10;;;;;;;23.28;100.00;101471.88;5096431;28;20416;-69
2023/08/17 10:21:22;;;;;;;4.90;2.20;;;;;;;23.35;98.79;101466.50;5095627;28;20971;-69
2023/08/17 10:23:49;;;;;;;3.77;2.00;;;;;;;23.47;98.13;101468.28;5096008;28;20515;-70
2023/08/17 10:26:18;;;;;;;5.60;2.47;;;;;;;23.64;97.54;101458.69;5096364;28;20452;-69
2023/08/17 10:28:46;;;;;;;8.03;2.10;;;;;;;23.77;97.59;101459.34;5095752;28;20437;-69
2023/08/17 10:31:14;;;;;;;4.97;2.30;;;;;;;23.94;97.38;101461.59;5096476;28;20441;-69
2023/08/17 10:33:44;;;;;;;4.00;1.83;;;;;;;24.07;95.44;101462.19;5095436;28;20527;-69
2023/08/17 10:36:12;;;;;;;4.53;2.00;;;;;;;24.20;93.87;101455.28;5096481;28;20468;-69
2023/08/17 10:38:38;;;;;;;3.10;1.73;;;;;;;24.49;94.10;101462.06;5095755;28;20442;-69
2023/08/17 10:41:15;;;;;;;6.37;2.20;;;;;;;24.75;93.86;101455.69;5095952;28;20480;-69
2023/08/17 10:44:04;;;;;;;3.63;1.93;;;;;;;25.05;90.10;101452.06;5095609;28;20452;-69
2023/08/17 10:46:34;;;;;;;3.77;2.27;;;;;;;25.34;89.83;101451.22;5088954;28;20504;-69
2023/08/17 10:49:05;;;;;;;3.93;2.20;;;;;;;25.63;86.06;101452.31;5095584;28;20945;-69
2023/08/17 10:51:32;;;;;;;4.43;2.57;;;;;;;25.83;82.15;101460.41;5095070;28;20932;-69
2023/08/17 10:54:02;;;;;;;3.80;2.03;;;;;;;26.07;82.09;101454.25;5095450;28;20532;-69
2023/08/17 10:56:29;;;;;;;3.90;2.03;;;;;;;26.31;82.34;101452.03;5095413;28;20994;-69
2023/08/17 10:58:59;;;;;;;5.57;2.60;;;;;;;26.45;82.38;101454.13;5095591;28;20472;-69
2023/08/17 11:01:35;;;;;;;5.13;1.70;;;;;;;26.43;81.94;101451.72;5094937;28;20972;-69
2023/08/17 11:04:13;;;;;;;4.10;2.27;;;;;;;26.42;76.91;101456.44;5094970;28;20440;-69
2023/08/17 11:06:40;;;;;;;2.87;1.30;;;;;;;26.35;77.12;101448.09;5094723;28;20456;-69
2023/08/17 11:09:08;;;;;;;4.10;1.87;;;;;;;26.39;79.46;101459.22;5095415;28;20440;-69
2023/08/17 11:11:35;;;;;;;4.07;2.07;;;;;;;26.52;78.95;101457.75;5095625;28;20468;-69
2023/08/17 11:14:02;;;;;;;3.50;1.57;;;;;;;26.46;77.64;101458.50;5094638;28;20951;-69
2023/08/17 11:16:29;;;;;;;3.97;2.50;;;;;;;26.55;79.39;101462.50;5095162;28;20461;-69
2023/08/17 11:18:59;;;;;;;3.67;2.07;;;;;;;26.62;77.46;101457.00;5094545;28;20803;-69
2023/08/17 11:21:26;;;;;;;3.20;1.70;;;;;;;27.09;76.74;101459.97;5094783;28;20514;-69